createdAt,value
2018-10-11T00:00:07.831Z,59.74
2018-10-11T00:02:37.608Z,59.93
2018-10-11T00:05:07.466Z,60.42
2018-10-11T00:07:37.314Z,60.16
2018-10-11T00:10:07.587Z,59.54
2018-10-11T00:12:37.502Z,59.51
2018-10-11T00:15:07.594Z,60.55
2018-10-11T00:17:37.417Z,59.73
2018-10-11T00:20:07.439Z,60.26
2018-10-11T00:22:37.470Z,60.33
2018-10-11T00:25:07.299Z,60.27
2018-10-11T00:27:37.186Z,60.46
2018-10-11T00:30:07.427Z,60.93
2018-10-11T00:32:37.549Z,60.81
2018-10-11T00:35:07.814Z,60.48
2018-10-11T00:37:37.924Z,60.81
2018-10-11T00:40:09.021Z,60.07
2018-10-11T00:42:39.286Z,60.49
2018-10-11T00:45:09.286Z,60.72
2018-10-11T00:47:39.023Z,60.44
2018-10-11T00:50:09.018Z,60.59
2018-10-11T00:52:38.931Z,61.03
2018-10-11T01:12:30.459Z,64.10
2018-10-11T01:15:00.169Z,64.93
2018-10-11T01:17:29.777Z,64.87
2018-10-11T01:19:59.959Z,64.40
2018-10-11T01:22:29.739Z,64.20
2018-10-11T01:24:59.615Z,63.78
2018-10-11T01:27:29.567Z,64.87
2018-10-11T01:29:59.358Z,65.16
2018-10-11T01:32:29.270Z,64.43
2018-10-11T01:34:59.614Z,64.68
2018-10-11T01:37:29.418Z,64.82
2018-10-11T01:39:59.334Z,64.70
2018-10-11T01:42:29.413Z,64.60
2018-10-11T01:44:59.198Z,64.48
2018-10-11T01:47:29.083Z,64.60
2018-10-11T01:49:59.299Z,65.02
2018-10-11T01:52:29.180Z,64.97
2018-10-11T01:54:58.884Z,64.62
2018-10-11T01:57:29.047Z,64.87
2018-10-11T01:59:58.506Z,64.95
2018-10-11T02:02:28.163Z,63.94
2018-10-11T02:04:57.823Z,65.16
2018-10-11T02:07:27.583Z,64.76
2018-10-11T02:09:57.405Z,64.24
2018-10-11T02:12:27.798Z,64.00
2018-10-11T02:14:57.443Z,64.59
2018-10-11T02:17:27.104Z,64.40
2018-10-11T02:19:57.059Z,64.41
2018-10-11T02:39:48.622Z,64.26
2018-10-11T02:42:18.179Z,65.38
2018-10-11T02:44:47.968Z,64.91
2018-10-11T02:47:17.637Z,64.58
2018-10-11T02:49:47.429Z,64.86
2018-10-11T02:52:16.980Z,65.22
2018-10-11T02:54:46.565Z,65.70
2018-10-11T02:57:27.464Z,66.08
2018-10-11T02:59:57.246Z,66.75
2018-10-11T03:02:27.045Z,66.74
2018-10-11T03:04:56.768Z,67.47
2018-10-11T03:07:27.792Z,66.86
2018-10-11T03:09:58.084Z,67.67
2018-10-11T03:12:27.796Z,67.86
2018-10-11T03:14:57.375Z,67.58
2018-10-11T03:17:27.583Z,67.13
2018-10-11T03:19:57.213Z,67.69
2018-10-11T03:22:26.799Z,67.31
2018-10-11T03:24:56.930Z,67.99
2018-10-11T03:27:26.999Z,67.85
2018-10-11T03:29:56.651Z,68.19
2018-10-11T03:49:46.945Z,66.49
2018-10-11T04:09:39.426Z,68.40
2018-10-11T04:12:09.472Z,68.29
2018-10-11T04:14:39.022Z,67.98
2018-10-11T04:17:08.950Z,68.09
2018-10-11T04:19:38.751Z,68.47
2018-10-11T04:22:08.980Z,68.58
2018-10-11T04:24:38.886Z,68.70
2018-10-11T04:27:08.887Z,67.88
2018-10-11T04:29:38.645Z,68.45
2018-10-11T04:32:08.377Z,67.91
2018-10-11T04:34:38.156Z,67.73
2018-10-11T04:37:08.081Z,68.43
2018-10-11T04:39:37.572Z,67.60
2018-10-11T04:42:07.676Z,67.21
2018-10-11T04:44:37.515Z,67.54
2018-10-11T05:04:28.782Z,66.74
2018-10-11T05:06:58.461Z,67.68
2018-10-11T05:09:28.074Z,67.80
2018-10-11T05:11:57.914Z,67.98
2018-10-11T05:31:50.402Z,66.31
2018-10-11T05:34:20.518Z,66.50
2018-10-11T05:36:50.385Z,66.31
2018-10-11T05:39:20.030Z,65.79
2018-10-11T05:41:50.120Z,66.18
2018-10-11T05:44:20.058Z,66.02
2018-10-11T05:46:49.703Z,65.92
2018-10-11T06:06:40.136Z,64.80
2018-10-11T06:09:10.866Z,64.38
2018-10-11T06:11:40.922Z,64.86
2018-10-11T06:14:11.064Z,64.83
2018-10-11T06:16:40.835Z,64.30
2018-10-11T06:19:11.303Z,63.83
2018-10-11T06:21:41.158Z,63.89
2018-10-11T06:24:11.129Z,63.58
2018-10-11T06:26:41.144Z,63.09
2018-10-11T06:29:10.908Z,63.92
2018-10-11T06:49:02.315Z,62.37
2018-10-11T06:51:32.159Z,62.28
2018-10-11T06:54:02.098Z,61.72
2018-10-11T06:56:31.824Z,61.82
2018-10-11T06:59:01.346Z,61.06
2018-10-11T07:01:31.210Z,60.83
2018-10-11T07:21:22.507Z,59.62
2018-10-11T07:23:51.898Z,58.47
2018-10-11T07:26:21.652Z,57.13
2018-10-11T07:28:51.307Z,57.24
2018-10-11T07:31:21.007Z,57.11
2018-10-11T07:33:50.661Z,57.38
2018-10-11T07:36:20.533Z,57.07
2018-10-11T07:38:50.309Z,56.08
2018-10-11T07:41:19.930Z,56.43
2018-10-11T08:01:09.484Z,54.16
2018-10-11T08:03:39.406Z,53.56
2018-10-11T08:06:09.140Z,52.53
2018-10-11T08:08:38.910Z,51.78
2018-10-11T08:11:08.934Z,50.95
2018-10-11T08:13:38.406Z,50.80
2018-10-11T08:16:08.994Z,50.25
2018-10-11T08:18:38.721Z,48.85
2018-10-11T08:21:08.388Z,50.16
2018-10-11T08:23:38.449Z,49.45
2018-10-11T08:26:09.467Z,49.62
2018-10-11T08:28:39.059Z,49.00
2018-10-11T08:31:09.874Z,48.34
2018-10-11T08:51:00.172Z,49.70
2018-10-11T08:53:29.900Z,49.37
2018-10-11T08:55:59.551Z,48.61
2018-10-11T08:58:29.368Z,48.45
2018-10-11T09:00:59.378Z,47.76
2018-10-11T09:03:29.433Z,47.48
2018-10-11T09:23:21.581Z,43.09
2018-10-11T09:25:51.101Z,42.27
2018-10-11T09:28:20.718Z,42.36
2018-10-11T09:30:50.545Z,42.48
2018-10-11T09:33:20.122Z,42.75
2018-10-11T09:35:49.815Z,41.49
2018-10-11T09:38:19.611Z,41.11
2018-10-11T09:40:49.462Z,41.21
2018-10-11T09:43:19.274Z,41.02
2018-10-11T09:45:49.411Z,41.21
2018-10-11T10:05:40.717Z,41.68
2018-10-11T10:08:10.676Z,41.61
2018-10-11T10:10:40.257Z,41.58
2018-10-11T10:13:10.065Z,41.50
2018-10-11T10:15:39.984Z,40.52
2018-10-11T10:18:09.700Z,38.76
2018-10-11T10:20:39.773Z,38.20
2018-10-11T10:23:09.565Z,37.40
2018-10-11T10:25:39.916Z,36.46
2018-10-11T10:28:09.348Z,36.12
2018-10-11T10:30:44.411Z,35.47
2018-10-11T10:33:14.438Z,35.18
2018-10-11T10:35:44.167Z,34.62
2018-10-11T10:38:13.936Z,34.22
2018-10-11T10:40:43.858Z,33.86
2018-10-11T10:43:13.859Z,34.31
2018-10-11T10:45:43.580Z,35.20
2018-10-11T10:48:13.538Z,35.53
2018-10-11T10:50:43.310Z,35.38
2018-10-11T10:53:13.014Z,36.10
2018-10-11T10:55:43.049Z,36.83
2018-10-11T10:58:12.914Z,37.37
2018-10-11T11:00:42.695Z,37.91
2018-10-11T11:03:13.402Z,37.41
2018-10-11T11:05:43.210Z,37.70
2018-10-11T11:08:13.022Z,38.80
2018-10-11T11:10:43.497Z,38.79
2018-10-11T11:13:13.466Z,39.21
2018-10-11T11:15:43.337Z,39.37
2018-10-11T11:18:13.342Z,38.01
2018-10-11T11:20:43.218Z,37.62
2018-10-11T11:23:13.012Z,37.28
2018-10-11T11:25:42.965Z,37.10
2018-10-11T11:28:12.747Z,36.07
2018-10-11T11:30:42.706Z,34.84
2018-10-11T11:33:12.515Z,34.21
2018-10-11T11:35:42.295Z,33.42
2018-10-11T11:38:12.102Z,32.68
2018-10-11T11:40:42.079Z,32.16
2018-10-11T11:43:12.037Z,31.41
2018-10-11T11:45:41.850Z,31.69
2018-10-11T11:48:11.849Z,31.67
2018-10-11T11:50:41.867Z,31.18
2018-10-11T11:53:11.881Z,31.17
2018-10-11T11:55:41.805Z,30.36
2018-10-11T11:58:12.798Z,30.10
2018-10-11T12:00:43.781Z,30.16
2018-10-11T12:03:13.569Z,30.03
2018-10-11T12:05:43.378Z,29.58
2018-10-11T12:08:13.432Z,28.83
2018-10-11T12:10:43.209Z,28.70
2018-10-11T12:13:13.385Z,27.55
2018-10-11T12:15:44.327Z,28.62
2018-10-11T12:18:14.115Z,28.23
2018-10-11T12:20:44.150Z,28.45
2018-10-11T12:23:14.269Z,28.53
2018-10-11T12:25:44.001Z,27.45
2018-10-11T12:28:13.759Z,27.39
2018-10-11T12:30:43.730Z,26.77
2018-10-11T12:33:13.478Z,27.39
2018-10-11T12:35:43.242Z,27.55
2018-10-11T12:38:13.043Z,27.74
2018-10-11T12:40:42.750Z,27.17
2018-10-11T12:43:12.419Z,26.70
2018-10-11T12:45:42.618Z,25.86
2018-10-11T12:48:12.412Z,25.71
2018-10-11T12:50:42.056Z,26.10
2018-10-11T12:53:11.914Z,26.01
2018-10-11T12:55:41.714Z,27.79
2018-10-11T12:58:11.520Z,29.33
2018-10-11T13:00:41.570Z,28.74
2018-10-11T13:03:11.362Z,28.39
2018-10-11T13:05:41.093Z,27.49
2018-10-11T13:08:11.235Z,28.28
2018-10-11T13:10:40.976Z,27.57
2018-10-11T13:13:10.836Z,26.83
2018-10-11T13:15:41.416Z,26.58
2018-10-11T13:18:10.678Z,27.84
2018-10-11T13:20:40.492Z,24.11
2018-10-11T13:23:14.515Z,23.12
2018-10-11T13:25:40.427Z,23.28
2018-10-11T13:28:10.583Z,24.63
2018-10-11T13:30:40.295Z,24.44
2018-10-11T13:33:10.028Z,23.60
2018-10-11T13:35:40.207Z,25.05
2018-10-11T13:38:09.985Z,24.32
2018-10-11T13:40:39.927Z,23.78
2018-10-11T13:43:10.081Z,25.19
2018-10-11T13:45:39.858Z,27.87
2018-10-11T13:48:09.610Z,28.75
2018-10-11T14:08:03.009Z,36.64
2018-10-11T14:27:54.557Z,41.71
2018-10-11T14:30:24.805Z,42.21
2018-10-11T14:32:54.530Z,42.13
2018-10-11T14:52:46.049Z,43.11
2018-10-11T14:55:15.860Z,43.92
2018-10-11T14:57:45.670Z,43.78
2018-10-11T15:00:15.637Z,44.11
2018-10-11T15:02:45.485Z,44.90
2018-10-11T15:05:15.489Z,44.87
2018-10-11T15:07:45.625Z,44.84
2018-10-11T15:10:15.409Z,44.62
2018-10-11T15:12:45.011Z,44.57
2018-10-11T15:15:14.979Z,44.76
2018-10-11T15:17:44.934Z,45.01
2018-10-11T15:20:14.631Z,45.17
2018-10-11T15:22:44.758Z,45.43
2018-10-11T15:25:14.510Z,45.56
2018-10-11T15:27:44.519Z,45.58
2018-10-11T15:30:14.511Z,45.61
2018-10-11T15:32:44.220Z,45.75
2018-10-11T15:35:14.113Z,46.24
2018-10-11T15:37:44.120Z,46.79
2018-10-11T15:57:35.827Z,48.21
2018-10-11T16:00:06.543Z,48.26
2018-10-11T16:02:36.234Z,48.39
2018-10-11T16:22:28.543Z,50.26
2018-10-11T16:42:20.441Z,50.19
2018-10-11T16:44:50.576Z,50.55
2018-10-11T16:47:21.317Z,50.75
2018-10-11T16:49:51.693Z,51.16
2018-10-11T16:52:21.504Z,50.93
2018-10-11T16:54:51.338Z,50.78
2018-10-11T16:57:21.167Z,50.53
2018-10-11T16:59:50.996Z,50.44
2018-10-11T17:02:20.730Z,50.64
2018-10-11T17:04:50.686Z,51.10
2018-10-11T17:24:42.792Z,52.06
2018-10-11T17:27:12.867Z,52.31
2018-10-11T17:29:42.591Z,52.22
2018-10-11T17:32:12.194Z,51.98
2018-10-11T17:34:42.133Z,52.81
2018-10-11T17:37:11.825Z,52.32
2018-10-11T17:39:41.331Z,52.07
2018-10-11T17:42:11.555Z,52.63
2018-10-11T17:44:41.404Z,52.66
2018-10-11T17:47:11.078Z,52.81
2018-10-11T17:49:40.964Z,52.69
2018-10-11T17:52:10.796Z,52.46
2018-10-11T17:54:44.832Z,52.60
2018-10-11T17:57:14.525Z,52.64
2018-10-11T17:59:44.217Z,52.48
2018-10-11T18:02:13.978Z,52.51
2018-10-11T18:04:43.438Z,52.98
2018-10-11T18:07:13.368Z,53.07
2018-10-11T18:09:43.104Z,53.17
2018-10-11T18:12:12.566Z,53.56
2018-10-11T18:14:42.298Z,53.49
2018-10-11T18:34:35.695Z,54.49
2018-10-11T18:37:05.283Z,53.86
2018-10-11T18:39:34.783Z,54.09
2018-10-11T18:42:04.854Z,53.65
2018-10-11T18:44:34.304Z,54.28
2018-10-11T18:47:03.833Z,53.85
2018-10-11T19:06:56.108Z,54.27
2018-10-11T19:09:25.885Z,54.19
2018-10-11T19:11:55.666Z,54.68
2018-10-11T19:14:25.850Z,54.70
2018-10-11T19:16:55.729Z,54.54
2018-10-11T19:51:15.159Z,56.13
2018-10-11T20:11:06.128Z,56.85
2018-10-11T20:13:35.661Z,56.73
2018-10-11T20:16:05.634Z,56.57
2018-10-11T20:18:35.561Z,56.11
2018-10-11T20:21:05.343Z,56.61
2018-10-11T20:23:35.299Z,56.13
2018-10-11T20:26:05.610Z,56.69
2018-10-11T20:28:35.180Z,56.55
2018-10-11T20:31:05.609Z,56.06
2018-10-11T20:33:35.431Z,56.08
2018-10-11T20:47:40.639Z,56.71
2018-10-11T20:50:10.769Z,56.39
2018-10-11T20:52:40.530Z,56.77
2018-10-11T20:55:10.379Z,56.95
2018-10-11T20:57:40.370Z,56.84
2018-10-11T21:00:10.535Z,56.54
2018-10-11T21:02:40.021Z,56.80
2018-10-11T21:05:09.920Z,57.01
2018-10-11T21:07:39.521Z,57.13
2018-10-11T21:10:09.662Z,57.04
2018-10-11T21:12:39.721Z,57.04
2018-10-11T21:15:09.601Z,57.44
2018-10-11T21:17:39.319Z,57.65
2018-10-11T21:20:09.121Z,57.13
2018-10-11T21:22:38.901Z,57.26
2018-10-11T21:25:08.845Z,57.29
2018-10-11T21:27:38.899Z,57.72
2018-10-11T21:30:08.770Z,57.60
2018-10-11T21:32:38.599Z,57.98
2018-10-11T21:35:08.909Z,58.18
2018-10-11T21:37:38.518Z,57.68
2018-10-11T21:40:08.455Z,57.90
2018-10-11T21:42:38.510Z,57.78
2018-10-11T21:45:08.381Z,57.45
2018-10-11T21:47:38.280Z,57.59
2018-10-11T21:50:08.483Z,57.46
2018-10-11T21:52:38.460Z,57.29
2018-10-11T21:55:08.327Z,57.58
2018-10-11T21:57:38.360Z,57.34
2018-10-11T22:00:08.483Z,57.33
2018-10-11T22:02:38.276Z,57.65
2018-10-11T22:05:08.154Z,57.82
2018-10-11T22:07:37.941Z,58.18
2018-10-11T22:10:07.920Z,58.14
2018-10-11T22:12:37.845Z,58.01
2018-10-11T22:15:07.869Z,58.19
2018-10-11T22:17:37.373Z,58.19
2018-10-11T22:20:07.353Z,58.67
2018-10-11T22:22:36.877Z,58.77
2018-10-11T22:25:06.708Z,59.10
2018-10-11T22:27:36.552Z,59.15
2018-10-11T22:30:06.576Z,59.38
2018-10-11T22:32:36.097Z,59.21
2018-10-11T22:35:06.027Z,59.30
2018-10-11T22:37:35.622Z,59.36
2018-10-11T22:40:05.395Z,59.57
2018-10-11T22:42:35.166Z,59.80
2018-10-11T22:45:04.858Z,59.48
2018-10-11T22:47:34.406Z,59.78
2018-10-11T22:50:04.586Z,59.83
2018-10-11T22:52:34.217Z,59.96
2018-10-11T22:55:04.011Z,60.13
2018-10-11T22:57:33.797Z,60.17
2018-10-11T23:00:03.385Z,60.27
2018-10-11T23:02:32.986Z,60.68
2018-10-11T23:05:02.926Z,60.77
2018-10-11T23:07:32.623Z,60.51
2018-10-11T23:10:02.486Z,60.86
2018-10-11T23:12:32.462Z,61.01
2018-10-11T23:15:02.223Z,61.06
2018-10-11T23:17:31.915Z,61.36
2018-10-11T23:20:01.969Z,61.70
2018-10-11T23:22:31.792Z,61.78
2018-10-11T23:25:01.561Z,61.65
2018-10-11T23:27:31.453Z,62.38
2018-10-11T23:30:01.172Z,62.23
2018-10-11T23:32:30.862Z,62.62
2018-10-11T23:35:00.837Z,62.96
2018-10-11T23:37:30.740Z,63.34
2018-10-11T23:40:00.716Z,63.63
2018-10-11T23:42:30.498Z,64.07
2018-10-11T23:45:00.283Z,63.58
2018-10-11T23:47:30.267Z,63.57
2018-10-11T23:50:00.389Z,63.33
2018-10-11T23:52:30.358Z,63.14
2018-10-11T23:55:00.251Z,63.23
2018-10-11T23:57:30.295Z,63.31
